Time;durP1;ratioP1;P1;durP2;ratioP2;P2;SDS_P1;SDS_P2;PMS_P1;PMS_P2;Temp;Humidity;BMP_temperature;BMP_pressure;BME280_temperature;BME280_humidity;BME280_pressure;Samples;Min_cycle;Max_cycle;Signal;HPM_P1;HPM_P2
2022/06/20 00:01:45;;;;;;;0.60;0.60;;;13.90;99.90;;;;;;5009344;28;20223;-89
2022/06/20 00:04:15;;;;;;;1.60;0.70;;;13.90;99.90;;;;;;5000012;28;20207;-87
2022/06/20 00:06:41;;;;;;;3.77;0.77;;;13.90;99.90;;;;;;5008846;28;20720;-89
2022/06/20 00:09:07;;;;;;;0.57;0.43;;;13.90;99.90;;;;;;4992181;28;20191;-88
2022/06/20 00:11:41;;;;;;;1.07;0.77;;;13.90;99.90;;;;;;4993015;28;20250;-87
2022/06/20 00:14:12;;;;;;;2.20;1.00;;;13.90;99.90;;;;;;5008285;28;20223;-88
2022/06/20 00:16:38;;;;;;;0.90;0.73;;;13.90;99.90;;;;;;5008536;28;20246;-88
2022/06/20 00:19:05;;;;;;;2.07;0.77;;;13.80;99.90;;;;;;5008167;28;20239;-87
2022/06/20 00:21:31;;;;;;;0.60;0.60;;;13.80;99.90;;;;;;5008983;28;20207;-88
2022/06/20 00:23:56;;;;;;;0.80;0.63;;;13.80;99.90;;;;;;4988606;28;20257;-87
2022/06/20 00:26:22;;;;;;;2.50;1.20;;;13.80;99.90;;;;;;4994982;28;20237;-89
2022/06/20 00:28:48;;;;;;;1.17;0.60;;;13.80;99.90;;;;;;5028993;28;20210;-88
2022/06/20 00:31:15;;;;;;;0.60;0.60;;;13.80;99.90;;;;;;4978829;28;20214;-87
2022/06/20 00:33:41;;;;;;;1.37;0.63;;;13.80;99.90;;;;;;5012002;28;20230;-87
2022/06/20 00:36:07;;;;;;;3.13;0.70;;;13.70;99.90;;;;;;5011033;28;20273;-87
2022/06/20 00:38:35;;;;;;;1.13;1.03;;;13.80;99.90;;;;;;4979295;28;20717;-87
2022/06/20 00:41:16;;;;;;;0.57;0.57;;;13.80;99.90;;;;;;5011629;28;20302;-87
2022/06/20 00:43:47;;;;;;;1.13;1.03;;;13.90;99.90;;;;;;5028957;28;21295;-87
2022/06/20 00:46:27;;;;;;;1.43;0.90;;;13.90;99.90;;;;;;5028852;28;20589;-86
2022/06/20 00:49:12;;;;;;;1.03;0.60;;;13.90;99.90;;;;;;5027682;28;20224;-87
2022/06/20 00:52:04;;;;;;;1.60;1.23;;;13.80;99.90;;;;;;5002667;28;20730;-87
2022/06/20 00:54:50;;;;;;;1.33;1.03;;;13.80;99.90;;;;;;5004441;28;20245;-87
2022/06/20 00:57:36;;;;;;;2.57;0.90;;;13.80;99.90;;;;;;5010909;28;20178;-87
2022/06/20 01:00:11;;;;;;;1.00;0.90;;;13.70;99.90;;;;;;5002726;28;20211;-87
2022/06/20 01:02:41;;;;;;;2.50;1.00;;;13.70;99.90;;;;;;5029026;28;20236;-87
2022/06/20 01:05:14;;;;;;;1.10;0.90;;;13.60;99.90;;;;;;5010718;28;20273;-86
2022/06/20 01:08:05;;;;;;;5.10;0.83;;;13.60;99.90;;;;;;4997629;28;20215;-87
2022/06/20 01:10:44;;;;;;;2.23;0.73;;;13.50;99.90;;;;;;5009135;28;20745;-87
2022/06/20 01:13:16;;;;;;;0.93;0.90;;;13.40;99.90;;;;;;4990857;28;20261;-86
2022/06/20 01:15:44;;;;;;;1.97;1.67;;;13.40;99.90;;;;;;4990967;28;20222;-87
2022/06/20 01:18:26;;;;;;;1.23;0.80;;;13.50;99.90;;;;;;4990019;28;20188;-87
2022/06/20 01:20:55;;;;;;;2.23;0.90;;;13.50;99.90;;;;;;4991761;28;20547;-88
2022/06/20 01:23:54;;;;;;;1.93;1.23;;;13.40;99.90;;;;;;4990865;28;20247;-87
2022/06/20 01:26:46;;;;;;;1.77;1.47;;;13.40;99.90;;;;;;5003317;28;20258;-88
2022/06/20 01:29:13;;;;;;;3.43;1.50;;;13.40;99.90;;;;;;4996425;28;20319;-87
2022/06/20 01:31:43;;;;;;;2.70;1.20;;;13.40;99.90;;;;;;4971431;28;20736;-87
2022/06/20 01:34:13;;;;;;;1.80;1.10;;;13.40;99.90;;;;;;4987663;28;20704;-87
2022/06/20 01:39:30;;;;;;;0.90;0.80;;;13.50;99.90;;;;;;4965087;28;20735;-87
2022/06/20 01:44:44;;;;;;;1.23;1.00;;;13.60;99.90;;;;;;4988782;28;20278;-87
2022/06/20 01:47:10;;;;;;;1.50;1.30;;;13.60;99.90;;;;;;4987113;28;20315;-87
2022/06/20 01:49:38;;;;;;;1.10;0.80;;;13.50;99.90;;;;;;4987716;28;20310;-86
2022/06/20 01:52:28;;;;;;;1.37;1.20;;;13.40;99.90;;;;;;5003684;28;20262;-86
2022/06/20 01:55:12;;;;;;;2.93;1.33;;;13.40;99.90;;;;;;4987583;28;20223;-87
2022/06/20 01:57:40;;;;;;;4.97;1.50;;;13.40;99.90;;;;;;4987888;28;20219;-88
2022/06/20 02:00:10;;;;;;;1.23;1.00;;;13.40;99.90;;;;;;4987974;28;20199;-87
2022/06/20 02:02:45;;;;;;;3.93;1.13;;;13.30;99.90;;;;;;4995340;28;20671;-87
2022/06/20 02:05:15;;;;;;;1.43;0.97;;;13.30;99.90;;;;;;5003273;28;20333;-87
2022/06/20 02:08:00;;;;;;;3.63;1.93;;;13.40;99.90;;;;;;5125140;27;20703;-89
2022/06/20 02:10:37;;;;;;;2.33;1.57;;;13.40;99.90;;;;;;5123071;28;20300;-89
2022/06/20 02:13:03;;;;;;;3.33;1.33;;;13.30;99.90;;;;;;5122907;28;20219;-88
2022/06/20 02:15:32;;;;;;;1.57;1.43;;;13.30;99.90;;;;;;5124526;27;20605;-88
2022/06/20 02:18:01;;;;;;;4.70;1.30;;;13.30;99.90;;;;;;5123874;28;20214;-89
2022/06/20 02:20:31;;;;;;;5.83;1.60;;;13.20;99.90;;;;;;5102859;28;20552;-87
2022/06/20 02:22:59;;;;;;;1.77;1.10;;;13.20;99.90;;;;;;5103908;28;20272;-89
2022/06/20 02:25:31;;;;;;;1.73;1.07;;;13.20;99.90;;;;;;5102553;28;20235;-89
2022/06/20 02:28:04;;;;;;;3.13;1.23;;;13.30;99.90;;;;;;5118980;27;20230;-89
2022/06/20 02:30:30;;;;;;;4.20;1.73;;;13.20;99.90;;;;;;5102368;28;20211;-89
2022/06/20 02:33:02;;;;;;;3.03;1.00;;;13.20;99.90;;;;;;5103043;28;20192;-87
2022/06/20 02:35:29;;;;;;;3.80;1.33;;;13.10;99.90;;;;;;5101815;28;20228;-89
2022/06/20 02:37:55;;;;;;;2.13;1.30;;;13.10;99.90;;;;;;5102085;28;20281;-89
2022/06/20 02:40:25;;;;;;;6.07;1.43;;;13.00;99.90;;;;;;5114086;28;20223;-89
2022/06/20 02:42:52;;;;;;;2.70;1.53;;;13.00;99.90;;;;;;5116451;27;20216;-88
2022/06/20 02:45:19;;;;;;;2.13;1.90;;;12.90;99.90;;;;;;5102595;27;20195;-88
2022/06/20 02:47:48;;;;;;;1.27;1.20;;;12.90;99.90;;;;;;5102452;28;20234;-89
2022/06/20 02:50:27;;;;;;;6.33;1.77;;;12.90;99.90;;;;;;5102675;27;21182;-89
2022/06/20 02:52:59;;;;;;;3.70;1.63;;;12.90;99.90;;;;;;5102121;28;20226;-89
2022/06/20 02:55:26;;;;;;;7.63;1.30;;;12.90;99.90;;;;;;5101644;28;20690;-89
2022/06/20 02:57:57;;;;;;;5.43;1.70;;;12.90;99.90;;;;;;5084719;28;20246;-89
2022/06/20 03:00:31;;;;;;;3.60;1.20;;;12.90;99.90;;;;;;5101572;28;20998;-89
2022/06/20 03:03:03;;;;;;;5.20;2.17;;;12.90;99.90;;;;;;5103085;28;20171;-89
2022/06/20 03:05:29;;;;;;;5.87;1.70;;;12.90;99.90;;;;;;5101021;28;20218;-88
2022/06/20 03:07:55;;;;;;;3.87;2.50;;;12.90;99.90;;;;;;5101285;28;20584;-89
2022/06/20 03:10:25;;;;;;;7.47;1.90;;;12.90;99.90;;;;;;5089168;28;21028;-89
2022/06/20 03:12:52;;;;;;;5.40;1.13;;;13.00;99.90;;;;;;5126310;27;20276;-88
2022/06/20 03:15:19;;;;;;;1.73;1.47;;;13.00;99.90;;;;;;5110381;27;23727;-90
2022/06/20 03:17:46;;;;;;;4.47;1.63;;;13.00;99.90;;;;;;5096560;28;20838;-89
2022/06/20 03:20:14;;;;;;;4.90;1.70;;;13.00;99.90;;;;;;5062507;28;20216;-89
2022/06/20 03:23:08;;;;;;;9.67;2.20;;;13.00;99.90;;;;;;5088007;28;20747;-87
2022/06/20 03:25:37;;;;;;;1.70;1.03;;;12.90;99.90;;;;;;5087550;28;20345;-89
2022/06/20 03:28:04;;;;;;;5.87;1.20;;;12.90;99.90;;;;;;5089091;28;20666;-87
2022/06/20 03:30:35;;;;;;;3.47;1.30;;;12.90;99.90;;;;;;5087728;28;20209;-88
2022/06/20 03:33:04;;;;;;;9.03;2.23;;;12.90;99.90;;;;;;5088030;28;20185;-88
2022/06/20 03:35:31;;;;;;;5.93;1.47;;;12.80;99.90;;;;;;5071279;28;20196;-87
2022/06/20 03:38:00;;;;;;;6.77;1.57;;;12.90;99.90;;;;;;5070757;28;20217;-89
2022/06/20 03:40:26;;;;;;;2.20;1.80;;;12.80;99.90;;;;;;5088309;28;20225;-89
2022/06/20 03:42:54;;;;;;;5.27;1.30;;;12.80;99.90;;;;;;5094682;28;20223;-88
2022/06/20 03:45:21;;;;;;;8.17;2.40;;;12.90;99.90;;;;;;5104457;28;20216;-88
2022/06/20 03:47:53;;;;;;;6.23;2.33;;;12.90;99.90;;;;;;5088103;28;20240;-88
2022/06/20 03:50:35;;;;;;;2.20;0.97;;;12.80;99.90;;;;;;5087932;28;20251;-87
2022/06/20 03:53:04;;;;;;;8.60;2.43;;;12.80;99.90;;;;;;5087532;28;20235;-88
2022/06/20 03:55:39;;;;;;;3.53;1.20;;;12.80;99.90;;;;;;5086623;28;20240;-88
2022/06/20 03:58:07;;;;;;;2.20;1.63;;;12.80;99.90;;;;;;5088081;27;20222;-89
2022/06/20 04:00:48;;;;;;;2.53;1.50;;;12.80;99.90;;;;;;5088343;27;20685;-88
2022/06/20 04:03:33;;;;;;;1.47;1.23;;;12.80;99.90;;;;;;5080081;27;20216;-89
2022/06/20 04:06:09;;;;;;;3.63;2.07;;;12.90;99.90;;;;;;5086488;27;20239;-88
2022/06/20 04:11:44;;;;;;;7.43;2.27;;;13.30;99.90;;;;;;5088081;28;20212;-89
2022/06/20 04:14:20;;;;;;;4.10;1.83;;;13.50;99.90;;;;;;5087684;27;20216;-89
2022/06/20 04:16:55;;;;;;;5.63;1.73;;;13.70;99.90;;;;;;5086826;28;20679;-89
2022/06/20 04:19:28;;;;;;;8.57;2.47;;;13.90;99.90;;;;;;5086954;28;20220;-89
2022/06/20 04:22:09;;;;;;;5.47;1.67;;;14.00;99.90;;;;;;5087407;28;20242;-89
2022/06/20 04:24:42;;;;;;;3.47;1.37;;;14.00;99.90;;;;;;5087511;27;20556;-89
2022/06/20 04:27:24;;;;;;;10.63;1.20;;;13.90;99.90;;;;;;5082921;27;20255;-88
2022/06/20 04:29:57;;;;;;;1.90;1.40;;;13.80;99.90;;;;;;5120106;27;20189;-90
2022/06/20 04:32:32;;;;;;;6.90;1.90;;;13.80;99.90;;;;;;5087757;28;20281;-88
2022/06/20 04:35:04;;;;;;;1.80;1.07;;;13.90;99.90;;;;;;5087461;27;20326;-89
2022/06/20 04:37:51;;;;;;;2.10;1.43;;;13.90;99.90;;;;;;5103618;27;20254;-90
2022/06/20 04:40:47;;;;;;;3.40;0.97;;;13.90;99.90;;;;;;5087266;27;20326;-90
2022/06/20 04:43:29;;;;;;;5.07;1.07;;;14.00;99.90;;;;;;5085652;28;21119;-89
2022/06/20 04:46:02;;;;;;;4.73;1.70;;;14.00;99.90;;;;;;5085990;28;20309;-89
2022/06/20 04:48:28;;;;;;;4.63;1.23;;;14.20;99.90;;;;;;5085783;28;20223;-87
2022/06/20 04:51:01;;;;;;;9.00;1.50;;;14.20;99.90;;;;;;5086547;28;20193;-89
2022/06/20 04:53:31;;;;;;;1.47;1.17;;;14.40;99.90;;;;;;5086091;28;20215;-88
2022/06/20 04:56:00;;;;;;;3.30;1.93;;;14.60;99.90;;;;;;5086789;28;20289;-90
2022/06/20 04:58:38;;;;;;;3.90;1.00;;;14.70;99.90;;;;;;5083163;28;20220;-88
2022/06/20 05:01:07;;;;;;;2.83;1.20;;;14.80;99.90;;;;;;5085588;28;20336;-91
2022/06/20 05:03:57;;;;;;;3.07;1.53;;;14.90;99.90;;;;;;5073529;28;20246;-89
2022/06/20 05:06:28;;;;;;;3.73;1.80;;;15.00;99.90;;;;;;5103610;28;20293;-91
2022/06/20 05:09:15;;;;;;;3.80;1.57;;;15.00;99.90;;;;;;5087363;28;20646;-90
2022/06/20 05:11:45;;;;;;;1.13;1.00;;;14.90;99.90;;;;;;5085659;28;20269;-89
2022/06/20 05:14:18;;;;;;;7.93;1.93;;;14.90;99.90;;;;;;5075646;28;20299;-91
2022/06/20 05:16:51;;;;;;;2.77;1.53;;;15.00;99.90;;;;;;5087441;28;20729;-90
2022/06/20 05:19:40;;;;;;;5.47;1.40;;;16.80;99.90;;;;;;5085959;28;20293;-90
2022/06/20 05:22:19;;;;;;;2.27;1.83;;;17.80;99.90;;;;;;5086090;28;20247;-90
2022/06/20 05:24:47;;;;;;;2.17;1.60;;;17.20;99.90;;;;;;5091987;28;20216;-92
2022/06/20 05:27:21;;;;;;;1.70;1.00;;;16.60;99.90;;;;;;5120070;27;20208;-88
2022/06/20 05:29:49;;;;;;;2.00;1.20;;;17.80;99.90;;;;;;5085685;28;20173;-91
2022/06/20 05:32:22;;;;;;;3.23;1.30;;;17.80;99.90;;;;;;5086741;28;20219;-93
2022/06/20 05:34:55;;;;;;;1.53;1.00;;;18.60;99.90;;;;;;5085205;28;20221;-91
2022/06/20 05:37:33;;;;;;;8.53;1.70;;;19.80;99.90;;;;;;5085296;28;20223;-92
2022/06/20 05:40:08;;;;;;;7.13;2.00;;;17.90;99.90;;;;;;5118938;27;20227;-90
2022/06/20 05:42:34;;;;;;;4.23;2.10;;;17.80;99.90;;;;;;5084858;28;20214;-90
2022/06/20 05:45:01;;;;;;;4.90;1.97;;;17.20;99.90;;;;;;5102700;28;20205;-89
2022/06/20 05:47:32;;;;;;;1.57;1.33;;;16.10;99.90;;;;;;5105332;28;20215;-89
2022/06/20 05:50:13;;;;;;;13.80;2.17;;;16.30;99.90;;;;;;5080709;28;20228;-89
2022/06/20 05:52:41;;;;;;;5.77;1.97;;;15.80;99.90;;;;;;5084026;28;20278;-89
2022/06/20 05:55:16;;;;;;;4.23;1.30;;;15.20;99.90;;;;;;5077549;28;20216;-89
2022/06/20 05:57:46;;;;;;;2.53;1.60;;;15.80;99.90;;;;;;5085074;28;20224;-88
2022/06/20 06:00:33;;;;;;;1.57;1.10;;;16.50;99.90;;;;;;5085399;28;20194;-88
2022/06/20 06:03:20;;;;;;;2.47;1.30;;;16.20;99.90;;;;;;5084241;28;20184;-85
2022/06/20 06:05:52;;;;;;;6.60;1.20;;;15.70;99.90;;;;;;5085485;28;20199;-87
2022/06/20 06:08:23;;;;;;;4.87;1.30;;;16.50;99.90;;;;;;5084039;28;20300;-87
2022/06/20 06:11:04;;;;;;;3.63;1.83;;;17.20;99.90;;;;;;5100943;28;20216;-89
2022/06/20 06:13:46;;;;;;;1.83;1.43;;;16.90;99.90;;;;;;5092496;28;20223;-89
2022/06/20 06:19:23;;;;;;;0.80;0.80;;;17.40;99.90;;;;;;5086332;28;20235;-90
2022/06/20 06:21:51;;;;;;;5.53;1.07;;;17.60;99.90;;;;;;5092934;28;20228;-92
2022/06/20 06:24:21;;;;;;;3.37;0.97;;;17.50;99.90;;;;;;5103199;28;20203;-90
2022/06/20 06:26:49;;;;;;;2.90;1.07;;;18.30;99.90;;;;;;5085333;28;20196;-93
2022/06/20 06:29:23;;;;;;;0.70;0.60;;;18.60;99.90;;;;;;5086027;28;20573;-93
2022/06/20 06:31:54;;;;;;;2.93;1.40;;;18.50;99.90;;;;;;5084715;28;20244;-90
2022/06/20 06:34:24;;;;;;;1.20;1.10;;;18.50;99.90;;;;;;5086640;28;20240;-92
2022/06/20 06:37:01;;;;;;;5.83;1.47;;;18.50;99.90;;;;;;5085847;28;20268;-92
2022/06/20 06:39:41;;;;;;;2.63;1.03;;;18.70;99.90;;;;;;5085655;28;20247;-93
2022/06/20 06:42:12;;;;;;;3.03;1.10;;;18.30;99.90;;;;;;5085913;28;20181;-94
2022/06/20 06:44:49;;;;;;;3.00;1.17;;;19.40;99.90;;;;;;5087048;28;20552;-94
2022/06/20 06:47:32;;;;;;;1.40;0.77;;;18.30;99.90;;;;;;5075236;28;20347;-93
2022/06/20 06:50:12;;;;;;;1.13;0.73;;;18.10;99.90;;;;;;5085232;28;20225;-94
2022/06/20 06:52:51;;;;;;;1.03;0.87;;;18.30;99.90;;;;;;5084953;28;21001;-93
2022/06/20 06:55:20;;;;;;;0.53;0.53;;;18.80;99.90;;;;;;5089029;28;20220;-88
2022/06/20 06:58:01;;;;;;;2.17;1.10;;;18.20;99.90;;;;;;5095844;28;20246;-90
2022/06/20 07:00:41;;;;;;;1.53;1.20;;;18.10;99.90;;;;;;5125046;27;20772;-88
2022/06/20 07:03:25;;;;;;;1.13;1.03;;;18.40;99.90;;;;;;5107832;28;20184;-88
2022/06/20 07:05:58;;;;;;;3.13;1.33;;;18.20;99.90;;;;;;5087082;28;20188;-89
2022/06/20 07:08:28;;;;;;;2.27;0.90;;;18.00;99.90;;;;;;5108769;28;20339;-88
2022/06/20 07:11:22;;;;;;;1.90;1.10;;;18.50;99.90;;;;;;5108403;28;20208;-88
2022/06/20 07:14:15;;;;;;;1.00;0.90;;;19.50;99.90;;;;;;5108216;28;20295;-90
2022/06/20 07:17:03;;;;;;;3.03;1.67;;;18.70;99.90;;;;;;5108277;28;20685;-89
2022/06/20 07:19:29;;;;;;;2.03;1.07;;;19.70;99.90;;;;;;5107995;28;20246;-90
2022/06/20 07:21:57;;;;;;;1.97;1.57;;;19.40;99.90;;;;;;5107952;28;20235;-85
2022/06/20 07:24:30;;;;;;;1.93;0.83;;;19.00;99.90;;;;;;5107570;28;20559;-89
2022/06/20 07:27:11;;;;;;;8.23;1.37;;;18.90;99.90;;;;;;5108021;28;20598;-85
2022/06/20 07:29:50;;;;;;;1.83;1.00;;;19.70;99.90;;;;;;5086797;28;20220;-84
2022/06/20 07:32:28;;;;;;;0.80;0.80;;;19.60;99.90;;;;;;5078693;28;20906;-85
2022/06/20 07:35:02;;;;;;;3.87;1.63;;;19.00;99.90;;;;;;5087553;28;20262;-88
2022/06/20 07:37:37;;;;;;;3.33;1.10;;;17.90;99.90;;;;;;5087699;28;20228;-88
2022/06/20 07:40:19;;;;;;;1.77;1.30;;;17.40;99.90;;;;;;5087956;28;20222;-89
2022/06/20 07:43:10;;;;;;;1.47;0.87;;;18.60;99.90;;;;;;5086871;28;20221;-88
2022/06/20 07:45:42;;;;;;;1.27;1.13;;;18.90;99.90;;;;;;5087753;28;20231;-86
2022/06/20 07:48:29;;;;;;;1.47;0.93;;;18.70;99.90;;;;;;5086740;28;20189;-88
2022/06/20 07:50:59;;;;;;;3.93;1.20;;;19.10;99.90;;;;;;5088596;28;20191;-86
2022/06/20 07:53:43;;;;;;;5.83;1.40;;;19.40;99.90;;;;;;5087135;28;20231;-88
2022/06/20 07:56:14;;;;;;;2.13;0.83;;;19.10;99.90;;;;;;5088062;28;20228;-86
2022/06/20 07:58:52;;;;;;;2.43;0.70;;;18.60;99.90;;;;;;5100678;28;20587;-87
2022/06/20 08:01:44;;;;;;;1.47;1.00;;;18.80;99.90;;;;;;5096429;28;20238;-86
2022/06/20 08:04:11;;;;;;;2.17;1.30;;;18.70;99.90;;;;;;5078089;28;20236;-88
2022/06/20 08:06:42;;;;;;;0.73;0.73;;;19.30;99.90;;;;;;5087073;28;20264;-89
2022/06/20 08:09:18;;;;;;;2.63;0.97;;;19.60;99.90;;;;;;5077810;28;20197;-87
2022/06/20 08:11:53;;;;;;;4.10;1.60;;;19.20;99.90;;;;;;5088233;28;20192;-86
2022/06/20 08:14:49;;;;;;;3.03;1.37;;;19.80;99.90;;;;;;5085018;28;20224;-89
2022/06/20 08:17:15;;;;;;;2.63;1.43;;;19.00;99.90;;;;;;5086783;28;20315;-86
2022/06/20 08:19:44;;;;;;;1.53;1.03;;;17.60;99.90;;;;;;5101219;28;20280;-91
2022/06/20 08:22:26;;;;;;;1.53;1.37;;;18.00;99.90;;;;;;5098184;28;20256;-92
2022/06/20 08:25:01;;;;;;;2.03;1.30;;;17.10;99.90;;;;;;5088037;28;20213;-91
2022/06/20 08:28:02;;;;;;;1.73;1.03;;;17.30;99.90;;;;;;5086628;28;20227;-87
2022/06/20 08:30:37;;;;;;;0.50;0.40;;;18.20;99.90;;;;;;5086945;28;20225;-89
2022/06/20 08:33:20;;;;;;;1.80;0.50;;;18.40;99.90;;;;;;5087719;28;20175;-91
2022/06/20 08:35:49;;;;;;;1.50;0.87;;;18.40;99.90;;;;;;5087880;28;20177;-90
2022/06/20 08:38:36;;;;;;;3.73;1.03;;;18.70;99.90;;;;;;5085565;28;20220;-91
2022/06/20 08:41:20;;;;;;;1.27;0.90;;;19.10;99.90;;;;;;5085696;28;20221;-89
2022/06/20 08:44:04;;;;;;;0.73;0.73;;;19.40;99.90;;;;;;5087222;28;20216;-90
2022/06/20 08:46:54;;;;;;;13.17;0.80;;;18.80;99.90;;;;;;5086604;28;20228;-91
2022/06/20 08:49:52;;;;;;;1.40;1.30;;;18.60;99.90;;;;;;5087275;28;20235;-90
2022/06/20 08:52:23;;;;;;;1.70;0.60;;;18.70;99.90;;;;;;5084637;28;20212;-88
2022/06/20 08:55:07;;;;;;;1.20;0.97;;;19.20;99.90;;;;;;5090413;28;20216;-87
2022/06/20 08:57:52;;;;;;;4.73;1.47;;;19.50;99.90;;;;;;5099386;28;20282;-84
2022/06/20 09:00:46;;;;;;;3.17;0.87;;;19.00;99.90;;;;;;5082166;28;20255;-84
2022/06/20 09:03:30;;;;;;;4.90;0.90;;;18.90;99.90;;;;;;5060827;27;21030;-86
2022/06/20 09:06:28;;;;;;;2.97;1.27;;;19.00;99.90;;;;;;5104474;28;20191;-84
2022/06/20 09:09:22;;;;;;;7.47;1.10;;;19.10;99.90;;;;;;5083096;28;20231;-87
2022/06/20 09:12:18;;;;;;;4.47;1.17;;;18.90;99.90;;;;;;5082563;28;20211;-85
2022/06/20 09:15:23;;;;;;;4.87;1.50;;;19.40;99.90;;;;;;5105229;28;20264;-86
2022/06/20 09:18:03;;;;;;;1.63;1.10;;;20.00;99.90;;;;;;5085506;28;20225;-87
2022/06/20 09:21:00;;;;;;;0.87;0.73;;;19.00;99.90;;;;;;5084812;28;20216;-86
2022/06/20 09:23:32;;;;;;;1.87;1.10;;;19.50;99.90;;;;;;5083731;28;20686;-88
2022/06/20 09:26:22;;;;;;;4.00;1.20;;;18.10;99.90;;;;;;5101359;28;20273;-85
2022/06/20 09:29:11;;;;;;;5.73;1.30;;;17.60;99.90;;;;;;5088718;28;20234;-86
2022/06/20 09:31:40;;;;;;;2.93;0.97;;;17.60;99.90;;;;;;5084949;28;20227;-86
2022/06/20 09:35:03;;;;;;;6.37;1.50;;;18.00;99.90;;;;;;5083292;28;20223;-89
2022/06/20 09:37:42;;;;;;;3.57;1.70;;;18.20;99.90;;;;;;5039421;28;20218;-87
2022/06/20 09:40:23;;;;;;;1.53;1.10;;;19.50;99.90;;;;;;5041082;28;20229;-87
2022/06/20 09:43:02;;;;;;;2.07;1.30;;;18.60;99.90;;;;;;5070530;28;20304;-90
2022/06/20 09:45:41;;;;;;;5.10;3.03;;;18.90;99.90;;;;;;5084958;28;20579;-88
2022/06/20 09:48:26;;;;;;;2.07;1.57;;;19.50;99.90;;;;;;5084828;28;20665;-89
2022/06/20 09:51:15;;;;;;;0.97;0.90;;;19.50;99.90;;;;;;5083245;28;20215;-87
2022/06/20 09:53:59;;;;;;;3.87;1.40;;;19.30;99.90;;;;;;5085708;28;20234;-86
2022/06/20 09:56:43;;;;;;;1.90;0.77;;;18.80;99.90;;;;;;5085944;28;20220;-86
2022/06/20 09:59:20;;;;;;;2.10;1.27;;;18.30;99.90;;;;;;5103861;28;20298;-87
2022/06/20 10:01:48;;;;;;;4.10;1.13;;;18.90;99.90;;;;;;5097250;27;20215;-85
2022/06/20 10:04:32;;;;;;;1.20;1.10;;;18.30;99.90;;;;;;5085588;28;20220;-86
2022/06/20 10:07:23;;;;;;;2.17;0.93;;;18.40;99.90;;;;;;5084265;28;20251;-85
2022/06/20 10:09:58;;;;;;;2.73;1.27;;;18.70;99.90;;;;;;5076852;28;20246;-86
2022/06/20 10:12:45;;;;;;;1.20;0.93;;;19.40;99.90;;;;;;5074889;28;20655;-86
2022/06/20 10:15:26;;;;;;;1.63;1.47;;;19.60;99.90;;;;;;5087141;28;20180;-87
2022/06/20 10:18:08;;;;;;;0.70;0.70;;;18.50;99.90;;;;;;5104342;28;20211;-87
2022/06/20 10:20:54;;;;;;;1.73;0.90;;;19.20;99.90;;;;;;5102054;28;20214;-87
2022/06/20 10:23:50;;;;;;;1.30;1.13;;;19.00;99.90;;;;;;5105357;28;20231;-88
2022/06/20 10:26:27;;;;;;;1.33;0.77;;;18.80;99.90;;;;;;5086082;28;20261;-88
2022/06/20 10:29:30;;;;;;;10.40;1.27;;;18.80;99.90;;;;;;5088202;28;20284;-90
2022/06/20 10:32:11;;;;;;;2.23;0.83;;;19.00;99.90;;;;;;5104059;28;20219;-90
2022/06/20 10:34:42;;;;;;;1.43;0.80;;;18.90;99.90;;;;;;5095427;28;20215;-87
2022/06/20 10:37:30;;;;;;;1.67;1.10;;;18.40;99.90;;;;;;5087658;28;20211;-87
2022/06/20 10:40:17;;;;;;;2.17;1.30;;;18.30;99.90;;;;;;5086593;28;20217;-87
2022/06/20 10:43:04;;;;;;;1.47;1.37;;;17.80;99.90;;;;;;5086962;28;20212;-88
2022/06/20 10:45:39;;;;;;;0.70;0.70;;;18.20;99.90;;;;;;5120435;27;20856;-89
2022/06/20 10:48:14;;;;;;;1.63;1.53;;;18.10;99.90;;;;;;5077865;28;20200;-87
2022/06/20 10:50:57;;;;;;;3.03;1.53;;;17.90;99.90;;;;;;5086806;28;20176;-87
2022/06/20 10:53:55;;;;;;;3.40;1.60;;;17.50;99.90;;;;;;5086265;28;20220;-88
2022/06/20 10:56:43;;;;;;;3.93;1.60;;;17.90;99.90;;;;;;5085472;28;20248;-87
2022/06/20 10:59:15;;;;;;;2.30;1.90;;;18.00;99.90;;;;;;5087005;28;20220;-88
2022/06/20 11:01:48;;;;;;;1.20;1.10;;;17.80;99.90;;;;;;5086013;28;20217;-87
2022/06/20 11:04:32;;;;;;;0.70;0.70;;;18.10;99.90;;;;;;5102022;28;21112;-87
2022/06/20 11:07:15;;;;;;;4.47;1.40;;;17.40;99.90;;;;;;5085948;28;20336;-87
2022/06/20 11:09:52;;;;;;;1.00;1.00;;;18.00;99.90;;;;;;5086825;28;20685;-88
2022/06/20 11:12:28;;;;;;;3.57;1.30;;;18.30;99.90;;;;;;5086967;28;20191;-88
2022/06/20 11:15:17;;;;;;;0.70;0.70;;;18.30;99.90;;;;;;5076343;28;20180;-87
2022/06/20 11:18:12;;;;;;;5.97;1.40;;;18.10;99.90;;;;;;5106780;28;20211;-90
2022/06/20 11:20:45;;;;;;;3.07;1.07;;;18.30;99.90;;;;;;5086328;28;20228;-90
2022/06/20 11:23:26;;;;;;;0.93;0.93;;;17.40;99.90;;;;;;5075672;28;20332;-91
2022/06/20 11:26:16;;;;;;;1.27;1.17;;;18.00;99.90;;;;;;5086553;28;20208;-89
2022/06/20 11:28:42;;;;;;;1.03;0.80;;;18.50;99.90;;;;;;5085246;28;20303;-92
2022/06/20 11:31:32;;;;;;;1.30;0.90;;;18.70;99.90;;;;;;5087332;28;20312;-95
2022/06/20 11:34:00;;;;;;;0.60;0.60;;;18.10;99.90;;;;;;5085897;28;20311;-93
2022/06/20 11:36:42;;;;;;;1.73;1.10;;;18.30;99.90;;;;;;5087717;28;20277;-94
2022/06/20 11:39:22;;;;;;;2.40;0.77;;;18.60;99.90;;;;;;5087609;28;20185;-92
2022/06/20 11:41:52;;;;;;;2.93;1.53;;;18.30;99.90;;;;;;5087478;28;20208;-93
2022/06/20 11:44:37;;;;;;;0.93;0.93;;;18.80;99.90;;;;;;5087040;28;20224;-94
2022/06/20 11:47:19;;;;;;;0.57;0.57;;;18.00;99.90;;;;;;5085513;28;20285;-90
2022/06/20 11:50:24;;;;;;;0.60;0.60;;;17.90;99.90;;;;;;5086652;28;20214;-92
2022/06/20 11:53:01;;;;;;;1.40;0.80;;;18.20;99.90;;;;;;5085661;28;20230;-93
2022/06/20 11:55:36;;;;;;;1.30;1.07;;;18.30;99.90;;;;;;5086809;28;20871;-91
2022/06/20 11:58:31;;;;;;;7.23;2.57;;;18.20;99.90;;;;;;5086383;28;20216;-93
2022/06/20 12:01:15;;;;;;;3.97;1.47;;;18.50;99.90;;;;;;5090008;27;20244;-93
2022/06/20 12:03:53;;;;;;;1.43;1.20;;;18.30;99.90;;;;;;5099487;28;20216;-92
2022/06/20 12:06:33;;;;;;;0.63;0.63;;;18.10;99.90;;;;;;5094575;28;20281;-92
2022/06/20 12:09:02;;;;;;;1.23;0.93;;;18.30;99.90;;;;;;5086978;28;20440;-90
2022/06/20 12:11:30;;;;;;;3.70;1.33;;;18.30;99.90;;;;;;5085701;28;20227;-93
2022/06/20 12:13:59;;;;;;;1.33;1.03;;;18.40;99.90;;;;;;5086013;28;20259;-93
2022/06/20 12:16:40;;;;;;;1.23;0.87;;;18.90;99.90;;;;;;5085913;28;20244;-94
2022/06/20 12:25:53;;;;;;;2.20;1.07;;;18.20;99.90;;;;;;5086484;28;20231;-92
2022/06/20 12:28:31;;;;;;;2.83;0.83;;;18.40;99.90;;;;;;5081645;28;20231;-94
2022/06/20 12:31:09;;;;;;;1.40;1.30;;;17.80;99.90;;;;;;5077217;28;20228;-94
2022/06/20 12:33:57;;;;;;;0.93;0.83;;;17.90;99.90;;;;;;5084958;28;20738;-93
2022/06/20 12:36:34;;;;;;;2.03;0.90;;;18.20;99.90;;;;;;5085440;28;20228;-93
2022/06/20 12:39:11;;;;;;;0.60;0.60;;;18.30;99.90;;;;;;5086561;28;20223;-92
2022/06/20 12:41:42;;;;;;;1.80;1.00;;;18.00;99.90;;;;;;5077482;28;20183;-91
2022/06/20 12:44:44;;;;;;;0.87;0.87;;;18.10;99.90;;;;;;5085516;28;20216;-92
2022/06/20 12:47:43;;;;;;;2.20;0.70;;;18.20;99.90;;;;;;5084927;28;20240;-90
2022/06/20 12:50:21;;;;;;;1.57;1.17;;;18.30;99.90;;;;;;5085084;28;20497;-94
2022/06/20 12:53:08;;;;;;;5.50;1.47;;;18.30;99.90;;;;;;5085220;28;20243;-93
2022/06/20 12:56:04;;;;;;;0.80;0.80;;;18.00;99.90;;;;;;5083328;28;20712;-93
2022/06/20 12:58:36;;;;;;;0.97;0.87;;;18.20;99.90;;;;;;5100526;28;20220;-90
2022/06/20 13:01:14;;;;;;;1.47;0.90;;;17.90;99.90;;;;;;5085450;28;20220;-91
2022/06/20 13:04:01;;;;;;;0.70;0.50;;;18.10;99.90;;;;;;5085609;28;20327;-93
2022/06/20 13:07:00;;;;;;;2.27;0.90;;;18.10;99.90;;;;;;5084812;28;20315;-91
2022/06/20 13:09:36;;;;;;;3.60;1.60;;;18.10;99.90;;;;;;5082659;28;20799;-92
2022/06/20 13:12:16;;;;;;;2.00;0.90;;;18.20;99.90;;;;;;5084597;28;20181;-92
2022/06/20 13:15:22;;;;;;;3.13;0.90;;;18.40;99.90;;;;;;5083812;28;20453;-88
2022/06/20 13:18:03;;;;;;;3.60;1.03;;;18.40;99.90;;;;;;5084667;28;20216;-92
2022/06/20 13:20:40;;;;;;;1.93;0.90;;;18.00;99.90;;;;;;5084552;28;20231;-88
2022/06/20 13:23:33;;;;;;;1.13;0.73;;;17.90;99.90;;;;;;5078351;28;20238;-91
2022/06/20 13:26:19;;;;;;;3.70;1.43;;;18.00;99.90;;;;;;5099128;28;20875;-91
2022/06/20 13:29:35;;;;;;;2.77;1.37;;;18.20;99.90;;;;;;5089676;28;20235;-91
2022/06/20 13:32:34;;;;;;;3.20;1.20;;;17.60;99.90;;;;;;5084825;28;20220;-92
2022/06/20 13:35:18;;;;;;;1.90;0.70;;;17.90;99.90;;;;;;5083820;28;20222;-91
2022/06/20 13:38:02;;;;;;;1.47;0.93;;;17.80;99.90;;;;;;5082977;28;20362;-94
2022/06/20 13:40:40;;;;;;;4.20;1.30;;;18.30;99.90;;;;;;5084653;28;20220;-94
2022/06/20 13:43:27;;;;;;;0.87;0.80;;;18.50;99.90;;;;;;5083943;28;20319;-93
2022/06/20 13:46:01;;;;;;;1.13;0.90;;;18.50;99.90;;;;;;5091224;28;20216;-91
2022/06/20 13:48:48;;;;;;;2.90;1.40;;;18.40;99.90;;;;;;5099749;28;20306;-93
2022/06/20 13:51:35;;;;;;;0.80;0.80;;;18.30;99.90;;;;;;5084307;28;20215;-92
2022/06/20 13:54:21;;;;;;;2.83;1.60;;;18.30;99.90;;;;;;5084249;28;20185;-93
2022/06/20 13:57:25;;;;;;;0.80;0.80;;;18.40;99.90;;;;;;5104528;28;20195;-92
2022/06/20 14:00:06;;;;;;;1.03;1.03;;;18.40;99.90;;;;;;5103392;28;20211;-89